Time;durP1;ratioP1;P1;durP2;ratioP2;P2;SDS_P1;SDS_P2;PMS_P1;PMS_P2;Temp;Humidity;BMP_temperature;BMP_pressure;BME280_temperature;BME280_humidity;BME280_pressure;Samples;Min_cycle;Max_cycle;Signal;HPM_P1;HPM_P2
2021/05/22 00:01:04;;;;;;;4.65;2.13;;;13.20;63.00;;;;;;4950188;29;20308;-59
2021/05/22 00:03:31;;;;;;;4.57;1.77;;;13.30;63.20;;;;;;4949703;29;20054;-59
2021/05/22 00:05:57;;;;;;;5.45;2.33;;;13.20;63.60;;;;;;4949931;29;20505;-59
2021/05/22 00:08:23;;;;;;;4.03;2.30;;;13.20;63.20;;;;;;4949597;29;20035;-58
2021/05/22 00:10:51;;;;;;;4.43;2.30;;;13.20;63.20;;;;;;4949926;29;20039;-59
2021/05/22 00:13:17;;;;;;;2.22;1.77;;;13.10;63.00;;;;;;4949659;29;20035;-59
2021/05/22 00:15:43;;;;;;;3.00;2.13;;;13.20;63.20;;;;;;4950170;29;20157;-59
2021/05/22 00:18:10;;;;;;;3.88;1.95;;;13.20;63.20;;;;;;4949121;29;20089;-60
2021/05/22 00:20:36;;;;;;;4.57;2.38;;;13.20;63.20;;;;;;4949106;29;20058;-59
2021/05/22 00:23:02;;;;;;;3.00;1.75;;;13.20;63.30;;;;;;4949602;29;20039;-59
2021/05/22 00:25:29;;;;;;;2.95;1.85;;;13.10;63.10;;;;;;4932129;29;20036;-58
2021/05/22 00:27:55;;;;;;;4.07;1.90;;;13.10;63.10;;;;;;4949711;29;20049;-59
2021/05/22 00:30:21;;;;;;;3.22;1.92;;;13.10;63.20;;;;;;4949345;29;20393;-59
2021/05/22 00:32:47;;;;;;;3.60;2.05;;;13.10;63.20;;;;;;4949739;29;20031;-60
2021/05/22 00:35:14;;;;;;;3.35;1.80;;;13.10;63.20;;;;;;4949630;29;20781;-59
2021/05/22 00:37:40;;;;;;;2.33;1.77;;;13.10;63.20;;;;;;4949486;29;20047;-60
2021/05/22 00:40:07;;;;;;;3.17;2.13;;;13.00;63.10;;;;;;4948490;28;20042;-60
2021/05/22 00:42:36;;;;;;;4.53;2.30;;;13.00;63.10;;;;;;4949044;29;20134;-60
2021/05/22 00:45:13;;;;;;;3.78;1.95;;;13.00;63.20;;;;;;4932039;29;20514;-60
2021/05/22 00:47:42;;;;;;;3.15;1.85;;;13.00;63.20;;;;;;4949055;29;20042;-60
2021/05/22 00:50:12;;;;;;;3.70;2.00;;;13.00;63.20;;;;;;4949044;29;20498;-60
2021/05/22 00:52:38;;;;;;;3.90;1.90;;;13.00;63.20;;;;;;4949280;29;20043;-60
2021/05/22 00:55:06;;;;;;;3.15;2.35;;;13.00;63.20;;;;;;4948676;29;20041;-60
2021/05/22 00:57:32;;;;;;;3.80;2.38;;;12.90;63.10;;;;;;4931728;29;20039;-59
2021/05/22 00:59:58;;;;;;;3.42;2.25;;;13.00;63.30;;;;;;4948623;29;20478;-60
2021/05/22 01:02:26;;;;;;;3.25;2.05;;;13.00;63.30;;;;;;4949562;29;20069;-60
2021/05/22 01:04:54;;;;;;;2.80;2.08;;;13.00;63.30;;;;;;4949105;29;20574;-60
2021/05/22 01:07:20;;;;;;;3.83;1.98;;;13.00;63.40;;;;;;4948967;29;20039;-60
2021/05/22 01:09:51;;;;;;;3.08;2.10;;;13.00;63.40;;;;;;4948411;29;20079;-60
2021/05/22 01:12:19;;;;;;;2.90;1.73;;;13.00;63.40;;;;;;4948523;29;20142;-59
2021/05/22 01:14:46;;;;;;;1.77;1.67;;;13.00;63.40;;;;;;4948240;29;20118;-59
2021/05/22 01:17:15;;;;;;;3.15;2.13;;;12.90;63.20;;;;;;4948872;29;20047;-59
2021/05/22 01:20:06;;;;;;;2.45;1.70;;;13.00;63.40;;;;;;4948348;29;20046;-59
2021/05/22 01:22:41;;;;;;;2.60;1.80;;;12.90;63.30;;;;;;4948198;29;20240;-60
2021/05/22 01:25:15;;;;;;;2.10;1.90;;;12.90;63.30;;;;;;4948220;29;20042;-59
2021/05/22 01:27:41;;;;;;;;;;;12.90;63.30;;;;;;4948817;29;20031;-59
2021/05/22 01:30:07;;;;;;;2.53;1.70;;;12.90;63.20;;;;;;4947887;29;19911;-59
2021/05/22 01:32:34;;;;;;;2.35;2.00;;;12.90;63.10;;;;;;4972386;23;20621;-73
2021/05/22 01:35:01;;;;;;;6.88;1.98;;;12.90;63.20;;;;;;4936144;28;20503;-73
2021/05/22 01:37:27;;;;;;;2.17;1.70;;;12.90;63.20;;;;;;4951907;28;20555;-73
2021/05/22 01:39:53;;;;;;;3.15;2.05;;;12.80;63.10;;;;;;4969410;28;20382;-73
2021/05/22 01:42:19;;;;;;;3.40;1.85;;;12.80;63.20;;;;;;4969685;28;20026;-73
2021/05/22 01:44:48;;;;;;;2.72;1.73;;;12.80;63.20;;;;;;4952410;28;20178;-73
2021/05/22 01:47:16;;;;;;;1.92;1.65;;;12.80;63.20;;;;;;4981740;23;20059;-83
2021/05/22 01:49:42;;;;;;;3.35;1.88;;;12.80;63.30;;;;;;4973078;28;20055;-81
2021/05/22 01:52:09;;;;;;;2.03;1.67;;;12.80;63.30;;;;;;4972111;28;20038;-84
2021/05/22 01:54:37;;;;;;;3.15;1.73;;;12.80;63.30;;;;;;4972754;28;20023;-83
2021/05/22 01:57:04;;;;;;;2.60;1.65;;;12.80;63.30;;;;;;4972574;28;20177;-83
2021/05/22 01:59:30;;;;;;;4.00;2.00;;;12.70;63.20;;;;;;4972576;28;20035;-80
2021/05/22 02:01:57;;;;;;;2.22;1.70;;;12.70;63.20;;;;;;4955297;28;20049;-82
2021/05/22 02:04:26;;;;;;;2.15;1.60;;;12.70;63.20;;;;;;4955054;28;20053;-82
2021/05/22 02:06:53;;;;;;;2.58;1.73;;;12.70;63.20;;;;;;4939443;28;20177;-82
2021/05/22 02:09:20;;;;;;;2.35;1.77;;;12.70;63.30;;;;;;4972652;28;20489;-82
2021/05/22 02:11:48;;;;;;;3.15;2.00;;;12.70;63.30;;;;;;4972620;28;20518;-83
2021/05/22 02:14:23;;;;;;;1.92;1.80;;;12.60;63.10;;;;;;4953108;29;20034;-82
2021/05/22 02:16:52;;;;;;;2.05;1.70;;;12.60;63.20;;;;;;4953198;29;20031;-83
2021/05/22 02:19:21;;;;;;;2.35;1.70;;;12.60;63.10;;;;;;4953026;29;20043;-83
2021/05/22 02:21:48;;;;;;;3.38;1.50;;;12.60;63.20;;;;;;4953419;29;20074;-83
2021/05/22 02:24:23;;;;;;;3.17;1.85;;;12.60;63.20;;;;;;4953441;29;20031;-82
2021/05/22 02:26:51;;;;;;;2.03;1.40;;;12.60;63.20;;;;;;4953549;29;20039;-86
2021/05/22 02:29:20;;;;;;;2.70;1.83;;;12.50;63.10;;;;;;4953453;29;20042;-82
2021/05/22 02:31:48;;;;;;;2.08;1.48;;;12.60;63.20;;;;;;4953392;29;20434;-81
2021/05/22 02:34:17;;;;;;;2.33;1.75;;;12.60;63.20;;;;;;4953367;29;20057;-82
2021/05/22 02:36:45;;;;;;;3.72;1.67;;;12.60;63.30;;;;;;4935902;29;20032;-83
2021/05/22 02:39:12;;;;;;;1.95;1.50;;;12.60;63.30;;;;;;4936183;29;20569;-85
2021/05/22 02:41:40;;;;;;;2.40;1.40;;;12.60;63.30;;;;;;4953414;29;20043;-84
2021/05/22 02:44:07;;;;;;;4.22;1.80;;;12.60;63.30;;;;;;4952686;29;20483;-83
2021/05/22 02:46:39;;;;;;;2.55;1.65;;;12.50;63.10;;;;;;4953036;29;20574;-82
2021/05/22 02:49:06;;;;;;;2.35;1.80;;;12.50;63.20;;;;;;4952919;29;20035;-84
2021/05/22 02:51:33;;;;;;;1.42;1.33;;;12.50;63.20;;;;;;4953506;29;20031;-82
2021/05/22 02:54:01;;;;;;;2.95;1.60;;;12.50;63.20;;;;;;4953463;29;20074;-84
2021/05/22 02:56:28;;;;;;;1.42;1.33;;;12.50;63.20;;;;;;4953109;29;20066;-84
2021/05/22 02:58:55;;;;;;;4.22;1.45;;;12.50;63.20;;;;;;4936058;29;20050;-84
2021/05/22 03:01:22;;;;;;;1.40;1.30;;;12.40;63.10;;;;;;4952905;29;20642;-82
2021/05/22 03:03:48;;;;;;;2.83;1.50;;;12.40;63.10;;;;;;4955194;28;20035;-80
2021/05/22 03:06:14;;;;;;;4.95;1.67;;;12.40;63.10;;;;;;4956465;29;20023;-81
2021/05/22 03:08:46;;;;;;;2.08;1.50;;;12.40;63.10;;;;;;4956455;29;20032;-83
2021/05/22 03:11:14;;;;;;;2.30;1.67;;;12.40;63.20;;;;;;4938777;29;20469;-82
2021/05/22 03:13:40;;;;;;;1.73;1.55;;;12.40;63.20;;;;;;4956060;29;20059;-83
2021/05/22 03:16:06;;;;;;;3.08;1.33;;;12.40;63.20;;;;;;4956395;29;20031;-81
2021/05/22 03:18:32;;;;;;;1.95;1.42;;;12.40;63.20;;;;;;4939120;29;20150;-82
2021/05/22 03:20:58;;;;;;;1.50;1.40;;;12.40;63.20;;;;;;4956357;29;20087;-81
2021/05/22 03:23:24;;;;;;;1.88;1.55;;;12.40;63.20;;;;;;4956097;29;20027;-81
2021/05/22 03:25:50;;;;;;;3.45;1.85;;;12.40;63.30;;;;;;4955831;29;20097;-81
2021/05/22 03:28:16;;;;;;;3.13;1.60;;;12.30;63.10;;;;;;4956266;29;20035;-82
2021/05/22 03:30:42;;;;;;;2.92;1.70;;;12.30;63.10;;;;;;4956226;29;20182;-81
2021/05/22 03:33:08;;;;;;;1.95;1.60;;;12.30;63.10;;;;;;4956068;29;20466;-81
2021/05/22 03:35:34;;;;;;;1.50;1.40;;;12.30;63.10;;;;;;4956093;29;20122;-80
2021/05/22 03:38:00;;;;;;;2.42;1.83;;;12.30;63.10;;;;;;4938855;29;20078;-82
2021/05/22 03:40:26;;;;;;;1.60;1.20;;;12.40;63.30;;;;;;4955928;29;20032;-82
2021/05/22 03:42:52;;;;;;;2.53;1.45;;;12.30;63.10;;;;;;4955769;29;20038;-81
2021/05/22 03:45:18;;;;;;;2.88;2.13;;;12.40;63.30;;;;;;4955685;29;20027;-81
2021/05/22 03:47:44;;;;;;;2.45;1.63;;;12.30;63.20;;;;;;4955794;29;20491;-81
2021/05/22 03:50:11;;;;;;;1.73;1.50;;;12.30;63.20;;;;;;4955851;29;20516;-82
2021/05/22 03:52:37;;;;;;;1.67;1.52;;;12.30;63.20;;;;;;4955862;29;20125;-80
2021/05/22 03:55:05;;;;;;;2.92;1.88;;;12.30;63.20;;;;;;4955491;29;20295;-81
2021/05/22 03:57:31;;;;;;;1.83;1.45;;;12.30;63.20;;;;;;4955165;29;20113;-80
2021/05/22 03:59:57;;;;;;;2.30;1.60;;;12.30;63.20;;;;;;4955767;29;20475;-80
2021/05/22 04:02:23;;;;;;;2.08;1.55;;;12.20;63.00;;;;;;4938326;29;20243;-80
2021/05/22 04:04:49;;;;;;;1.58;1.48;;;12.30;63.30;;;;;;4938098;29;20027;-82
2021/05/22 04:07:14;;;;;;;4.78;1.92;;;12.20;63.10;;;;;;4955129;29;20032;-81
2021/05/22 04:09:40;;;;;;;1.98;1.50;;;12.20;63.10;;;;;;4955457;29;20035;-81
2021/05/22 04:12:07;;;;;;;1.77;1.60;;;12.20;63.20;;;;;;4954990;29;20024;-81
2021/05/22 04:14:33;;;;;;;2.90;1.60;;;12.20;63.20;;;;;;4954776;28;20039;-80
2021/05/22 04:16:59;;;;;;;2.60;1.85;;;12.20;63.20;;;;;;4955035;29;20050;-81
2021/05/22 04:19:25;;;;;;;2.83;1.60;;;12.20;63.20;;;;;;4955187;29;20118;-81
2021/05/22 04:21:51;;;;;;;2.33;1.30;;;12.20;63.20;;;;;;4955182;29;20450;-80
2021/05/22 04:24:17;;;;;;;1.27;1.20;;;12.20;63.20;;;;;;4955305;29;20038;-82
2021/05/22 04:26:44;;;;;;;3.42;1.67;;;12.20;63.20;;;;;;4955175;29;20031;-81
2021/05/22 04:29:10;;;;;;;2.28;1.52;;;12.20;63.20;;;;;;4937596;29;20348;-82
2021/05/22 04:31:36;;;;;;;2.20;1.60;;;12.20;63.20;;;;;;4955164;29;20035;-81
2021/05/22 04:34:02;;;;;;;2.42;1.65;;;12.20;63.20;;;;;;4954749;29;20031;-81
2021/05/22 04:36:28;;;;;;;1.92;1.50;;;12.20;63.20;;;;;;4937153;29;20031;-81
2021/05/22 04:38:54;;;;;;;2.53;1.70;;;12.20;63.20;;;;;;4937307;29;20050;-82
2021/05/22 04:41:20;;;;;;;1.88;1.48;;;12.20;63.20;;;;;;4937386;29;20430;-81
2021/05/22 04:43:46;;;;;;;1.42;1.23;;;12.20;63.20;;;;;;4954786;29;20109;-81
2021/05/22 04:46:12;;;;;;;2.10;1.63;;;12.20;63.70;;;;;;4954734;29;20047;-81
2021/05/22 04:48:38;;;;;;;2.58;1.50;;;12.20;63.20;;;;;;4940292;29;20027;-80
2021/05/22 04:51:05;;;;;;;1.50;1.40;;;12.20;63.20;;;;;;4914898;29;20039;-81
2021/05/22 04:53:35;;;;;;;2.58;1.60;;;12.20;63.20;;;;;;4932528;29;20453;-81
2021/05/22 04:56:01;;;;;;;2.45;1.70;;;12.20;63.20;;;;;;4932048;29;20043;-80
2021/05/22 04:58:27;;;;;;;2.85;1.60;;;12.20;63.20;;;;;;4940982;29;20043;-81
2021/05/22 05:00:53;;;;;;;1.83;1.40;;;12.20;63.20;;;;;;4933670;29;20030;-81
2021/05/22 05:03:20;;;;;;;1.50;1.40;;;12.20;63.20;;;;;;4950064;29;20035;-80
2021/05/22 05:05:46;;;;;;;2.28;1.73;;;12.20;63.20;;;;;;4932743;29;20054;-80
2021/05/22 05:08:20;;;;;;;2.55;1.40;;;12.20;63.20;;;;;;4949863;29;20035;-82
2021/05/22 05:10:47;;;;;;;2.03;1.55;;;12.20;63.20;;;;;;4950050;29;20027;-82
2021/05/22 05:13:14;;;;;;;1.77;1.48;;;12.20;63.20;;;;;;4932758;29;20035;-81
2021/05/22 05:15:40;;;;;;;2.13;1.63;;;12.20;63.20;;;;;;4932739;29;20070;-81
2021/05/22 05:18:07;;;;;;;2.47;1.75;;;12.10;63.00;;;;;;4916553;29;20067;-81
2021/05/22 05:20:34;;;;;;;1.60;1.50;;;12.20;63.20;;;;;;4949356;29;20479;-80
2021/05/22 05:22:59;;;;;;;1.60;1.35;;;12.20;63.20;;;;;;4949860;29;20038;-81
2021/05/22 05:25:26;;;;;;;1.95;1.23;;;12.20;63.20;;;;;;4932524;29;20027;-81
2021/05/22 05:27:51;;;;;;;1.42;1.33;;;12.20;63.20;;;;;;4915584;29;20391;-80
2021/05/22 05:30:18;;;;;;;1.45;1.35;;;12.20;63.20;;;;;;4949366;29;20035;-80
2021/05/22 05:32:44;;;;;;;2.03;1.52;;;12.10;63.00;;;;;;4949423;29;20063;-80
2021/05/22 05:35:11;;;;;;;1.52;1.42;;;12.10;63.00;;;;;;4926817;29;20027;-85
2021/05/22 05:37:40;;;;;;;1.35;1.25;;;12.10;63.00;;;;;;4932267;29;20051;-81
2021/05/22 05:40:07;;;;;;;1.55;1.40;;;12.20;63.20;;;;;;4949674;29;20027;-82
2021/05/22 05:42:33;;;;;;;1.63;1.30;;;12.20;63.20;;;;;;4949361;29;20062;-80
2021/05/22 05:45:01;;;;;;;2.35;1.58;;;12.10;63.00;;;;;;4949252;29;20031;-84
2021/05/22 05:47:27;;;;;;;1.75;1.20;;;12.20;63.20;;;;;;4949324;29;20065;-81
2021/05/22 05:49:53;;;;;;;2.33;1.50;;;12.20;63.20;;;;;;4950035;29;20054;-82
2021/05/22 05:52:19;;;;;;;2.25;1.25;;;12.10;63.10;;;;;;4949199;29;20036;-79
2021/05/22 05:54:45;;;;;;;1.27;1.17;;;12.20;63.20;;;;;;4948877;29;20170;-82
2021/05/22 05:57:11;;;;;;;1.30;1.20;;;12.20;63.30;;;;;;4949879;29;20031;-81
2021/05/22 05:59:37;;;;;;;2.45;1.52;;;12.30;63.40;;;;;;4949023;29;20550;-81
2021/05/22 06:02:03;;;;;;;2.30;1.38;;;12.30;63.90;;;;;;4950649;29;20410;-82
2021/05/22 06:04:29;;;;;;;2.17;1.23;;;12.40;63.50;;;;;;4949311;29;20038;-83
2021/05/22 06:06:55;;;;;;;1.42;1.20;;;12.40;64.00;;;;;;4950053;29;20031;-84
2021/05/22 06:09:21;;;;;;;1.38;1.27;;;12.50;63.50;;;;;;4948454;29;20122;-84
2021/05/22 06:11:47;;;;;;;1.95;1.50;;;12.60;63.60;;;;;;4949408;29;20549;-83
2021/05/22 06:14:16;;;;;;;2.38;1.58;;;12.70;63.70;;;;;;4931410;29;20030;-79
2021/05/22 06:16:43;;;;;;;1.33;1.23;;;12.70;63.70;;;;;;4931118;29;20151;-82
2021/05/22 06:19:10;;;;;;;4.63;1.80;;;12.90;63.90;;;;;;4933107;29;20041;-84
2021/05/22 06:21:38;;;;;;;2.78;1.65;;;13.00;63.90;;;;;;4932126;29;20047;-84
2021/05/22 06:24:07;;;;;;;1.25;1.10;;;13.10;64.00;;;;;;4931219;29;20130;-89
2021/05/22 06:26:33;;;;;;;2.38;1.27;;;13.20;64.10;;;;;;4931377;29;20069;-84
2021/05/22 06:28:59;;;;;;;1.65;1.13;;;13.30;64.10;;;;;;4949911;29;20445;-84
2021/05/22 06:31:25;;;;;;;3.03;1.58;;;13.50;64.40;;;;;;4950098;29;20031;-82
2021/05/22 06:33:51;;;;;;;3.15;1.58;;;13.70;64.50;;;;;;4949813;29;20031;-83
2021/05/22 06:36:17;;;;;;;1.63;1.30;;;13.80;64.50;;;;;;4950269;29;20062;-86
2021/05/22 06:38:43;;;;;;;1.88;1.45;;;13.90;64.40;;;;;;4951818;28;20058;-86
2021/05/22 06:41:09;;;;;;;1.40;1.23;;;14.00;64.40;;;;;;4936966;29;20054;-82
2021/05/22 06:43:36;;;;;;;3.72;1.25;;;14.00;64.30;;;;;;4954090;29;20062;-86
2021/05/22 06:46:46;;;;;;;1.98;1.13;;;14.20;64.70;;;;;;4936019;29;20050;-87
2021/05/22 06:48:48;;;;;;;3.70;1.40;;;14.40;65.30;;;;;;4954430;29;20511;-82
2021/05/22 06:51:14;;;;;;;1.73;1.25;;;14.70;66.00;;;;;;4936879;29;20146;-79
2021/05/22 06:53:40;;;;;;;4.72;1.63;;;14.90;66.00;;;;;;4953779;29;20117;-85
2021/05/22 06:56:06;;;;;;;4.75;1.40;;;15.20;66.10;;;;;;4953355;29;20024;-90
2021/05/22 06:58:32;;;;;;;1.33;1.23;;;15.30;66.00;;;;;;4954245;29;20073;-81
2021/05/22 07:00:58;;;;;;;1.85;1.27;;;15.50;66.10;;;;;;4956199;29;20128;-90
2021/05/22 07:03:25;;;;;;;4.40;1.48;;;15.60;66.10;;;;;;4954343;29;20150;-85
2021/05/22 07:05:51;;;;;;;1.40;1.30;;;15.70;66.10;;;;;;4954963;29;20050;-89
2021/05/22 07:08:17;;;;;;;1.17;1.08;;;15.90;66.30;;;;;;4955263;29;20039;-88
2021/05/22 07:10:44;;;;;;;4.32;1.40;;;16.00;66.20;;;;;;4954425;29;20038;-89
2021/05/22 07:13:11;;;;;;;1.48;1.23;;;16.10;66.20;;;;;;4937930;29;20471;-90
2021/05/22 07:15:37;;;;;;;2.20;1.20;;;16.20;66.10;;;;;;4955775;29;20487;-91
2021/05/22 07:18:03;;;;;;;1.30;1.20;;;16.20;65.90;;;;;;4939370;29;20046;-91
2021/05/22 07:20:29;;;;;;;2.25;1.20;;;16.20;65.70;;;;;;4940512;29;20086;-88
2021/05/22 07:22:55;;;;;;;3.75;1.17;;;16.30;65.80;;;;;;4937688;29;20035;-86
2021/05/22 07:25:22;;;;;;;1.40;1.02;;;16.30;65.80;;;;;;4936624;29;20031;-82
2021/05/22 07:27:49;;;;;;;1.23;1.10;;;16.30;65.70;;;;;;4937519;29;20035;-83
2021/05/22 07:30:16;;;;;;;1.30;1.20;;;16.50;65.90;;;;;;4936958;29;20040;-90
2021/05/22 07:32:43;;;;;;;1.25;1.15;;;16.60;65.70;;;;;;4954653;29;20039;-80
2021/05/22 07:35:11;;;;;;;1.15;1.10;;;16.70;65.70;;;;;;4954731;29;20054;-88
2021/05/22 07:37:38;;;;;;;1.40;1.10;;;16.80;65.60;;;;;;4954530;29;20039;-80
2021/05/22 07:40:05;;;;;;;2.08;1.20;;;17.00;65.70;;;;;;4952906;29;20037;-89
2021/05/22 07:42:32;;;;;;;1.58;1.40;;;17.10;65.60;;;;;;4953406;29;20031;-77
2021/05/22 07:44:59;;;;;;;1.30;1.20;;;17.10;65.40;;;;;;4935793;29;20030;-86
2021/05/22 07:47:25;;;;;;;2.72;1.10;;;17.30;65.50;;;;;;4953011;29;20084;-78
2021/05/22 07:49:54;;;;;;;2.50;1.50;;;17.40;65.50;;;;;;4933539;29;20032;-84
2021/05/22 07:52:20;;;;;;;1.55;1.15;;;17.50;66.00;;;;;;4935165;29;20398;-83
2021/05/22 07:54:47;;;;;;;1.17;1.08;;;17.70;65.60;;;;;;4935559;29;20067;-81
2021/05/22 07:57:15;;;;;;;1.35;1.05;;;17.90;65.80;;;;;;4936330;29;20035;-79
2021/05/22 07:59:41;;;;;;;1.80;1.33;;;18.00;65.70;;;;;;4952906;29;20126;-87
2021/05/22 08:02:08;;;;;;;3.20;1.30;;;18.20;65.40;;;;;;4953331;29;20038;-84
2021/05/22 08:04:35;;;;;;;2.38;1.25;;;18.30;65.10;;;;;;4953456;29;20113;-80
2021/05/22 08:07:02;;;;;;;2.55;1.15;;;18.30;64.80;;;;;;4951224;29;20227;-81
2021/05/22 08:09:28;;;;;;;3.00;1.20;;;18.30;64.60;;;;;;4951000;29;20070;-81
2021/05/22 08:11:54;;;;;;;2.40;1.15;;;18.20;64.40;;;;;;4934135;29;20052;-78
2021/05/22 08:14:21;;;;;;;1.45;1.20;;;18.10;64.20;;;;;;4951671;29;20035;-85
2021/05/22 08:16:47;;;;;;;2.63;1.15;;;18.10;64.30;;;;;;4935132;29;20035;-81
2021/05/22 08:19:13;;;;;;;1.75;1.20;;;18.10;64.40;;;;;;4934439;29;20170;-82
2021/05/22 08:21:40;;;;;;;1.73;1.27;;;18.10;64.30;;;;;;4934012;29;20061;-82
2021/05/22 08:24:07;;;;;;;1.95;1.02;;;18.20;64.30;;;;;;4951836;29;20039;-84
2021/05/22 08:26:34;;;;;;;2.13;1.30;;;18.30;64.40;;;;;;4918354;29;20059;-84
2021/05/22 08:29:02;;;;;;;2.05;1.30;;;18.50;64.50;;;;;;4934877;29;20367;-84
2021/05/22 08:31:28;;;;;;;6.38;1.42;;;18.70;64.30;;;;;;4919194;29;20042;-85
2021/05/22 08:33:55;;;;;;;1.15;1.00;;;18.80;64.70;;;;;;4932321;29;20035;-83
2021/05/22 08:36:21;;;;;;;1.30;0.82;;;18.90;64.00;;;;;;4914430;29;20058;-79
2021/05/22 08:38:47;;;;;;;1.20;0.90;;;19.00;63.90;;;;;;4909036;29;20502;-76
2021/05/22 08:41:13;;;;;;;1.92;1.20;;;19.10;63.90;;;;;;4934410;29;20036;-85
2021/05/22 08:43:39;;;;;;;1.55;1.00;;;19.10;63.70;;;;;;4920122;29;20070;-83
2021/05/22 08:46:10;;;;;;;2.75;1.30;;;19.10;63.50;;;;;;4921309;29;20163;-87
2021/05/22 08:48:37;;;;;;;2.67;1.30;;;19.10;63.40;;;;;;4919590;29;20035;-85
2021/05/22 08:51:06;;;;;;;1.83;1.17;;;19.10;63.30;;;;;;4936288;29;20027;-91
2021/05/22 08:53:33;;;;;;;1.63;1.00;;;19.10;63.20;;;;;;4921709;29;20042;-88
2021/05/22 08:56:00;;;;;;;1.23;1.00;;;19.10;63.20;;;;;;4921029;29;20038;-89
2021/05/22 08:58:26;;;;;;;1.98;1.08;;;19.00;63.10;;;;;;4936593;29;20569;-86
2021/05/22 09:00:53;;;;;;;1.70;1.00;;;19.00;63.10;;;;;;4920708;29;20031;-92
2021/05/22 09:03:20;;;;;;;2.05;1.17;;;19.00;63.10;;;;;;4917582;29;20036;-92
2021/05/22 09:05:46;;;;;;;1.75;1.20;;;18.90;62.90;;;;;;4916863;29;20479;-85
2021/05/22 09:08:15;;;;;;;1.83;1.10;;;18.90;63.00;;;;;;4916909;29;20127;-86
2021/05/22 09:10:42;;;;;;;0.90;0.90;;;19.00;63.10;;;;;;4900473;29;20043;-86
2021/05/22 09:13:11;;;;;;;1.33;0.90;;;19.00;63.30;;;;;;4940019;29;20082;-84
2021/05/22 09:15:42;;;;;;;2.85;1.10;;;19.10;63.10;;;;;;4917851;29;20244;-86
2021/05/22 09:18:13;;;;;;;0.85;0.82;;;19.30;63.00;;;;;;4932873;29;20035;-80
2021/05/22 09:20:49;;;;;;;2.70;1.02;;;19.50;63.10;;;;;;4936937;29;20042;-84
2021/05/22 09:23:21;;;;;;;2.70;1.27;;;19.70;62.90;;;;;;4915837;29;20566;-82
2021/05/22 09:25:48;;;;;;;1.67;1.13;;;19.90;62.70;;;;;;4900692;29;20066;-86
2021/05/22 09:28:17;;;;;;;0.95;0.80;;;20.10;62.60;;;;;;4937949;29;20483;-79
2021/05/22 09:30:46;;;;;;;1.17;0.90;;;20.30;62.50;;;;;;4934194;29;20122;-81
2021/05/22 09:33:23;;;;;;;1.52;1.17;;;20.40;62.40;;;;;;4949610;29;20038;-79
2021/05/22 09:35:55;;;;;;;1.60;1.00;;;20.60;62.20;;;;;;4933665;29;20031;-83
2021/05/22 09:38:36;;;;;;;1.20;1.02;;;20.90;62.20;;;;;;4932452;29;20039;-78
2021/05/22 09:41:25;;;;;;;1.42;0.70;;;21.10;62.00;;;;;;4949255;29;20394;-80
2021/05/22 09:44:10;;;;;;;2.20;1.10;;;21.20;61.80;;;;;;4949907;29;20038;-83
2021/05/22 09:46:44;;;;;;;0.98;0.90;;;21.30;61.80;;;;;;4916803;29;20354;-78
2021/05/22 09:49:10;;;;;;;;;;;21.40;61.90;;;;;;4950027;29;20038;-79
2021/05/22 09:52:01;;;;;;;1.50;0.95;;;21.50;62.30;;;;;;4933916;29;19910;-89
2021/05/22 09:54:54;;;;;;;1.08;0.82;;;21.70;62.20;;;;;;4933748;29;20463;-87
2021/05/22 09:57:32;;;;;;;0.88;0.85;;;21.80;61.90;;;;;;4931901;29;20443;-80
2021/05/22 10:00:13;;;;;;;2.28;1.10;;;22.00;62.00;;;;;;4913735;29;20040;-79
2021/05/22 10:02:48;;;;;;;2.03;0.98;;;22.20;61.70;;;;;;4918087;29;20110;-80
2021/05/22 10:05:37;;;;;;;2.55;1.27;;;22.30;61.60;;;;;;4949221;29;20106;-84
2021/05/22 10:08:05;;;;;;;1.58;0.90;;;22.60;61.80;;;;;;4932139;29;20047;-84
2021/05/22 10:10:37;;;;;;;1.65;0.80;;;22.80;61.60;;;;;;4915873;29;20027;-85
2021/05/22 10:13:10;;;;;;;1.92;1.00;;;22.90;61.30;;;;;;4933175;29;20066;-87
2021/05/22 10:15:37;;;;;;;0.98;0.93;;;23.00;61.20;;;;;;4916334;29;20031;-83
2021/05/22 10:18:05;;;;;;;1.17;0.70;;;23.20;61.30;;;;;;4913576;29;20047;-87
2021/05/22 10:20:32;;;;;;;0.75;0.70;;;23.20;61.10;;;;;;4897710;29;20042;-81
2021/05/22 10:22:59;;;;;;;1.85;1.00;;;23.20;60.90;;;;;;4920902;29;20600;-78
2021/05/22 10:25:25;;;;;;;2.70;0.82;;;23.20;60.80;;;;;;4950650;29;20028;-79
2021/05/22 10:27:51;;;;;;;0.80;0.80;;;23.10;60.70;;;;;;4950326;29;20046;-85
2021/05/22 10:30:19;;;;;;;1.80;0.77;;;23.10;60.70;;;;;;4916536;29;20031;-83
2021/05/22 10:32:46;;;;;;;0.80;0.80;;;23.10;60.70;;;;;;4949524;29;20039;-78
2021/05/22 10:35:19;;;;;;;0.73;0.70;;;23.00;60.50;;;;;;4916803;29;20035;-83
2021/05/22 10:37:49;;;;;;;1.75;1.00;;;23.20;60.70;;;;;;4916014;29;20039;-82
2021/05/22 10:40:17;;;;;;;1.08;0.93;;;23.30;60.70;;;;;;4916115;29;20031;-80
2021/05/22 10:42:53;;;;;;;2.40;1.02;;;23.40;60.60;;;;;;4932646;29;20066;-79
2021/05/22 10:45:33;;;;;;;1.75;0.80;;;23.60;60.50;;;;;;4931888;29;20031;-84
2021/05/22 10:48:05;;;;;;;2.05;0.80;;;23.80;60.50;;;;;;4932950;29;20055;-85
2021/05/22 10:50:40;;;;;;;3.13;0.90;;;23.90;60.40;;;;;;4933474;29;20034;-86
2021/05/22 10:53:36;;;;;;;0.70;0.70;;;24.10;60.40;;;;;;4932385;29;20046;-83
2021/05/22 10:56:07;;;;;;;2.08;0.98;;;24.20;60.20;;;;;;4932150;29;20110;-85
2021/05/22 10:58:35;;;;;;;0.95;0.73;;;24.30;60.10;;;;;;4930595;29;20082;-80
2021/05/22 11:01:23;;;;;;;1.10;1.00;;;24.40;60.10;;;;;;4948167;29;20030;-81
2021/05/22 11:04:10;;;;;;;1.45;0.80;;;24.40;59.90;;;;;;4916407;29;20049;-79
2021/05/22 11:06:46;;;;;;;0.70;0.60;;;24.40;59.80;;;;;;4932154;29;20088;-84
2021/05/22 11:09:37;;;;;;;1.15;0.80;;;24.40;59.60;;;;;;4912977;29;20046;-80
2021/05/22 11:12:04;;;;;;;2.80;0.70;;;24.40;58.50;;;;;;4912959;29;20032;-81
2021/05/22 11:14:53;;;;;;;0.82;0.65;;;24.30;57.30;;;;;;4948881;29;20035;-82
2021/05/22 11:17:19;;;;;;;1.83;0.73;;;24.00;55.10;;;;;;4948619;29;20439;-81
2021/05/22 11:20:00;;;;;;;0.88;0.70;;;23.70;54.70;;;;;;4949372;29;20046;-82
2021/05/22 11:22:31;;;;;;;2.63;1.08;;;23.40;53.50;;;;;;4948245;29;20286;-82
2021/05/22 11:25:12;;;;;;;3.13;1.20;;;23.10;53.10;;;;;;4932397;29;20046;-83
2021/05/22 11:30:14;;;;;;;3.20;1.40;;;22.50;52.10;;;;;;4934207;29;20126;-81
2021/05/22 11:32:51;;;;;;;1.45;0.93;;;22.30;52.10;;;;;;4915662;29;20038;-81
2021/05/22 11:35:34;;;;;;;1.95;0.70;;;22.20;51.20;;;;;;4932801;29;20495;-81
2021/05/22 11:38:13;;;;;;;2.05;1.08;;;22.10;50.70;;;;;;4918353;29;20070;-80
2021/05/22 11:40:52;;;;;;;2.97;1.00;;;22.20;50.60;;;;;;4934934;29;20035;-88
2021/05/22 11:43:22;;;;;;;1.80;0.98;;;22.20;50.40;;;;;;4935490;29;20039;-83
2021/05/22 11:46:03;;;;;;;2.28;1.10;;;22.40;50.20;;;;;;4919650;29;20095;-82
2021/05/22 11:48:34;;;;;;;3.55;1.63;;;22.50;49.50;;;;;;4933909;29;20134;-81
2021/05/22 11:51:06;;;;;;;1.85;1.02;;;22.70;49.20;;;;;;4934238;29;20062;-81
2021/05/22 11:53:33;;;;;;;2.63;1.50;;;22.60;48.20;;;;;;4915463;29;20134;-82
2021/05/22 11:56:09;;;;;;;3.60;1.40;;;22.60;48.10;;;;;;4931840;29;20421;-80
2021/05/22 11:58:38;;;;;;;3.40;1.60;;;22.60;47.60;;;;;;4934032;29;20053;-82
2021/05/22 12:01:20;;;;;;;5.65;1.60;;;22.70;47.70;;;;;;4934383;29;20363;-80
2021/05/22 12:03:50;;;;;;;6.50;1.67;;;22.70;47.50;;;;;;4934388;29;20326;-82
2021/05/22 12:06:31;;;;;;;4.65;1.70;;;22.80;47.80;;;;;;4934497;29;20486;-81
2021/05/22 12:09:00;;;;;;;3.53;1.13;;;22.80;47.50;;;;;;4951233;29;20509;-82
2021/05/22 12:11:31;;;;;;;3.45;1.48;;;22.70;47.40;;;;;;4934135;29;20027;-80
2021/05/22 12:13:59;;;;;;;3.58;1.50;;;22.60;47.20;;;;;;4918629;29;20122;-80
2021/05/22 12:16:26;;;;;;;7.07;2.38;;;22.60;46.90;;;;;;4933876;29;20392;-80
2021/05/22 12:18:54;;;;;;;7.97;2.10;;;22.70;47.00;;;;;;4950857;29;20466;-81
2021/05/22 12:21:31;;;;;;;5.75;1.80;;;22.70;46.80;;;;;;4933651;29;20048;-80
2021/05/22 12:24:12;;;;;;;11.00;2.63;;;22.70;46.40;;;;;;4933733;29;20258;-81
2021/05/22 12:27:04;;;;;;;6.88;2.20;;;22.50;46.20;;;;;;4918962;29;20035;-88
2021/05/22 12:29:55;;;;;;;7.00;2.53;;;22.20;46.20;;;;;;4928606;29;20039;-85
2021/05/22 12:32:24;;;;;;;;;;;22.00;46.80;;;;;;4932392;29;20051;-81
2021/05/22 12:35:09;;;;;;;7.57;2.38;;;21.70;47.10;;;;;;4933985;29;19910;-83
2021/05/22 12:37:40;;;;;;;6.40;2.33;;;21.50;47.10;;;;;;4949300;29;20410;-81
2021/05/22 12:40:10;;;;;;;6.55;1.77;;;21.30;47.30;;;;;;4919023;29;20063;-83
2021/05/22 12:42:37;;;;;;;1.80;1.45;;;21.20;47.30;;;;;;4933802;29;20023;-81
2021/05/22 12:45:14;;;;;;;6.35;1.80;;;21.10;47.30;;;;;;4917324;29;20035;-80
2021/05/22 12:47:46;;;;;;;3.17;1.52;;;21.00;47.10;;;;;;4914787;29;20143;-81
2021/05/22 12:50:16;;;;;;;5.57;1.50;;;21.00;47.20;;;;;;4931343;29;20024;-80
2021/05/22 12:53:00;;;;;;;4.18;1.40;;;21.10;47.10;;;;;;4931841;29;20036;-79
2021/05/22 12:55:29;;;;;;;5.50;1.77;;;21.30;46.90;;;;;;4931551;29;20200;-82
2021/05/22 12:58:07;;;;;;;4.90;1.70;;;21.60;47.30;;;;;;4930360;29;20070;-80
2021/05/22 13:00:34;;;;;;;6.78;1.90;;;21.70;46.60;;;;;;4931473;29;20027;-80